Dunbar, PA (15431)

2:36 AM EDT on August 29, 2016 (GMT -0400)
Dunbar | | Change Station
Active Advisory: Areal Flood Warning

Elev 1056 ft 40.00 °N, 79.69 °W | Updated 10 seconds ago

Clear
Clear
66.9 °F
Feels Like 66.9 °F
N
0.0
Wind Variable Wind from East
Gusts 0.0 mph

Today
High -- | Low -- °F
--% Chance of Precip.
Yesterday
High -- | Low -- °F
Precip. -- in
Pressure 30.21 in
Visibility 10.0 miles
Clouds Clear
Dew Point 66 °F
Humidity 97%
Rainfall 0.00 in
Snow Depth Not available.
6:43 AM 7:53 PM
Waning Crescent, 10% visible
METAR KLBE 290615Z AUTO 00000KT 10SM CLR 19/19 A3021 RMK AO2
Pressure 30.21 in
Visibility 10.0 miles
Clouds Clear
Dew Point 66 °F
Humidity 97%
Rainfall 0.00 in
Snow Depth Not available.
6:43 AM 7:53 PM
Waning Crescent, 10% visible
METAR KLBE 290615Z AUTO 00000KT 10SM CLR 19/19 A3021 RMK AO2

10-Day Weather Forecast

Almanac

Astronomy

Aug. 29, 2016 Rise Set
Actual Time
Civil Twilight
Nautical Twilight
Astronomical Twilight
Moon
Length of Visible Light
Length of Day
Tomorrow will be .
, % of the Moon is Illuminated

Today's Extremes

State Highs State Lows

Community

WunderPhotos

Upload Photos

1,935,800 photos uploaded!

WunderBlog® & News

Nearby

Air Quality

  Air Quality AQ Index Pollutant
Not available.

Snow Depth

Station Depth Elevation

Earthquake Activity

City Distance Mag. Time & Date
Minimum magnitude displayed is 2.5.

Coastal Water Temperatures

Place Temperature

Stations

Nearby Weather Stations

Station Location Temp. Windchill Dew Point Humidity Wind Precip. Elev Updated Type
                   

Watches & Warnings

Areal Flood Warning
Issued: 1:45 AM EDT Aug. 29, 2016 – National Weather Service

The National Weather Service in Pittsburgh has issued a

* Flood Warning for...
northeastern Fayette County in southwestern Pennsylvania...

* until 445 am EDT

* at 144 am EDT... emergency management officials reported
significant flooding continues across portions of Fayette County.

* Some locations that will experience flooding include...
Connellsville... South Connellsville... Seven Springs... Dunbar...
Champion... Mill run... Indian Head... Normalville and Acme.

Please report flooding by calling 4 1 2... 2 6 2... 1 9 8 8... posting
to the NWS Pittsburgh facebook Page... or using twitter
@nwspittsburgh.
Precautionary/preparedness actions...

Turn around... don't drown when encountering flooded roads. Most flood
deaths occur in vehicles.

Be especially cautious at night when it is harder to recognize the
dangers of flooding.


Lat... Lon 3994 7938 3994 7970 4013 7953 4014 7951
      4014 7948 4013 7945 4012 7944 4010 7940
      4009 7939 4007 7935 4004 7934 4004 7930